Time;durP1;ratioP1;P1;durP2;ratioP2;P2;SDS_P1;SDS_P2;PMS_P1;PMS_P2;Temp;Humidity;BMP_temperature;BMP_pressure;BME280_temperature;BME280_humidity;BME280_pressure;Samples;Min_cycle;Max_cycle;Signal;HPM_P1;HPM_P2
2022/06/30 00:01:35;;;;;;;4.80;4.30;;;22.60;52.60;;;;;;5023559;28;20053;-50
2022/06/30 00:04:03;;;;;;;6.40;4.45;;;22.60;52.70;;;;;;5024101;28;20057;-50
2022/06/30 00:06:31;;;;;;;4.80;4.25;;;22.60;52.80;;;;;;5023372;28;20080;-52
2022/06/30 00:08:59;;;;;;;5.80;4.45;;;22.60;52.90;;;;;;5023644;28;20501;-49
2022/06/30 00:11:28;;;;;;;4.95;4.40;;;22.60;52.90;;;;;;5022569;28;20397;-56
2022/06/30 00:13:57;;;;;;;5.30;4.68;;;22.50;53.00;;;;;;5024431;28;20061;-50
2022/06/30 00:16:25;;;;;;;5.45;4.30;;;22.50;53.00;;;;;;5023790;28;20615;-52
2022/06/30 00:18:52;;;;;;;4.80;4.40;;;22.50;53.10;;;;;;5023010;28;20053;-50
2022/06/30 00:21:20;;;;;;;5.18;4.50;;;22.50;53.20;;;;;;5021040;28;20050;-51
2022/06/30 00:23:47;;;;;;;6.25;4.55;;;22.40;53.20;;;;;;5024693;28;20053;-53
2022/06/30 00:26:14;;;;;;;9.63;5.13;;;22.40;53.40;;;;;;5023604;28;20666;-53
2022/06/30 00:28:43;;;;;;;5.82;5.10;;;22.40;53.50;;;;;;5023164;28;20053;-52
2022/06/30 00:31:11;;;;;;;7.78;4.82;;;22.40;53.70;;;;;;5021617;28;20077;-49
2022/06/30 00:33:38;;;;;;;7.30;5.18;;;22.40;53.70;;;;;;5023909;28;20413;-48
2022/06/30 00:36:06;;;;;;;6.32;4.95;;;22.40;54.30;;;;;;5024121;28;20060;-51
2022/06/30 00:38:33;;;;;;;6.93;5.07;;;22.30;53.90;;;;;;5023347;28;20064;-48
2022/06/30 00:41:01;;;;;;;6.07;5.03;;;22.30;53.80;;;;;;5023240;28;20433;-52
2022/06/30 00:43:28;;;;;;;7.05;5.07;;;22.30;53.90;;;;;;5022930;28;20053;-51
2022/06/30 00:45:57;;;;;;;6.65;4.85;;;22.30;54.00;;;;;;5022956;28;20053;-51
2022/06/30 00:48:24;;;;;;;5.93;4.80;;;22.20;54.10;;;;;;5022381;28;20489;-48
2022/06/30 00:50:52;;;;;;;7.45;5.00;;;22.20;54.10;;;;;;5021689;28;20053;-50
2022/06/30 00:53:20;;;;;;;6.60;5.43;;;22.20;54.20;;;;;;5024284;28;20068;-52
2022/06/30 00:55:48;;;;;;;8.23;5.10;;;22.20;54.40;;;;;;5023858;28;20057;-50
2022/06/30 00:58:18;;;;;;;8.00;5.18;;;22.10;54.40;;;;;;5023299;28;20413;-50
2022/06/30 01:00:48;;;;;;;8.63;5.78;;;22.10;54.40;;;;;;5020241;28;20053;-50
2022/06/30 01:03:18;;;;;;;5.90;5.32;;;22.10;54.50;;;;;;5022397;28;20058;-53
2022/06/30 01:05:47;;;;;;;6.22;5.35;;;22.10;54.70;;;;;;5022868;28;20049;-49
2022/06/30 01:08:17;;;;;;;8.85;5.38;;;22.00;54.70;;;;;;5022391;28;20497;-51
2022/06/30 01:13:30;;;;;;;5.57;5.05;;;22.00;54.90;;;;;;5027913;28;20060;-51
2022/06/30 01:15:57;;;;;;;7.80;5.50;;;22.00;55.00;;;;;;5021222;28;20079;-49
2022/06/30 01:18:26;;;;;;;6.85;5.80;;;22.00;55.20;;;;;;5022854;28;20405;-49
2022/06/30 01:20:53;;;;;;;7.80;6.05;;;22.00;55.20;;;;;;5022427;28;20060;-52
2022/06/30 01:23:22;;;;;;;7.32;6.03;;;22.00;55.40;;;;;;5023257;28;20060;-48
2022/06/30 01:25:51;;;;;;;6.60;5.78;;;21.90;55.40;;;;;;5022776;28;20053;-50
2022/06/30 01:28:19;;;;;;;6.13;5.28;;;21.90;55.50;;;;;;5022434;28;20058;-52
2022/06/30 01:30:47;;;;;;;6.20;5.45;;;21.80;55.50;;;;;;5020238;28;20416;-54
2022/06/30 01:33:14;;;;;;;8.43;6.22;;;21.90;55.60;;;;;;5020417;28;20386;-52
2022/06/30 01:35:42;;;;;;;7.53;5.60;;;21.80;55.60;;;;;;5022970;28;20398;-49
2022/06/30 01:38:09;;;;;;;9.00;6.05;;;21.80;55.70;;;;;;5021439;28;20061;-48
2022/06/30 01:40:38;;;;;;;6.38;5.78;;;21.80;55.80;;;;;;5021281;28;20064;-51
2022/06/30 01:43:11;;;;;;;6.68;6.00;;;21.70;55.80;;;;;;5021872;28;20053;-52
2022/06/30 01:45:39;;;;;;;9.00;6.20;;;21.70;55.90;;;;;;5020713;28;20060;-54
2022/06/30 01:48:08;;;;;;;7.32;6.57;;;21.70;56.00;;;;;;5020807;28;20065;-49
2022/06/30 01:50:36;;;;;;;8.00;6.57;;;21.70;56.00;;;;;;5021802;28;20413;-52
2022/06/30 01:53:04;;;;;;;8.13;6.13;;;21.60;56.10;;;;;;5023514;28;20076;-52
2022/06/30 01:55:32;;;;;;;10.05;6.43;;;21.60;56.10;;;;;;5021045;28;20497;-53
2022/06/30 01:58:00;;;;;;;9.13;6.95;;;21.60;56.20;;;;;;5020974;28;20416;-51
2022/06/30 02:00:29;;;;;;;8.63;6.35;;;21.60;56.40;;;;;;5019192;28;20058;-52
2022/06/30 02:02:57;;;;;;;8.88;6.80;;;21.50;56.40;;;;;;5021999;28;20045;-52
2022/06/30 02:05:25;;;;;;;7.57;6.75;;;21.50;56.50;;;;;;5023264;28;20505;-51
2022/06/30 02:07:54;;;;;;;7.78;6.22;;;21.50;56.60;;;;;;5019660;28;20050;-49
2022/06/30 02:10:25;;;;;;;8.20;7.03;;;21.50;56.70;;;;;;5021801;28;20057;-49
2022/06/30 02:12:52;;;;;;;8.60;7.47;;;21.40;56.90;;;;;;5021510;28;20060;-51
2022/06/30 02:15:24;;;;;;;7.25;6.43;;;21.40;56.80;;;;;;5020912;28;20060;-50
2022/06/30 02:17:53;;;;;;;8.65;7.18;;;21.40;57.00;;;;;;5021292;28;20060;-50
2022/06/30 02:20:23;;;;;;;9.10;6.80;;;21.40;57.10;;;;;;5022243;28;20053;-52
2022/06/30 02:22:53;;;;;;;8.32;6.82;;;21.40;57.10;;;;;;5021138;28;20049;-54
2022/06/30 02:25:20;;;;;;;8.55;7.65;;;21.40;57.30;;;;;;5022613;28;20064;-52
2022/06/30 02:27:48;;;;;;;18.02;7.22;;;21.40;57.40;;;;;;5019481;28;20068;-48
2022/06/30 02:30:15;;;;;;;7.90;7.05;;;21.30;57.90;;;;;;5019686;28;20131;-51
2022/06/30 02:32:44;;;;;;;12.48;6.60;;;21.30;57.50;;;;;;5016954;28;20059;-50
2022/06/30 02:35:12;;;;;;;8.02;6.80;;;21.30;57.60;;;;;;5020496;28;20058;-54
2022/06/30 02:37:40;;;;;;;10.35;7.47;;;21.30;57.60;;;;;;5021872;28;20053;-50
2022/06/30 02:40:09;;;;;;;10.05;7.50;;;21.30;57.70;;;;;;5021481;28;20478;-52
2022/06/30 02:42:37;;;;;;;8.82;7.80;;;21.20;57.80;;;;;;5019102;28;20057;-52
2022/06/30 02:45:05;;;;;;;13.15;8.25;;;21.20;57.80;;;;;;5019845;28;20736;-51
2022/06/30 02:47:38;;;;;;;8.80;7.57;;;21.20;57.80;;;;;;5019212;28;20503;-48
2022/06/30 02:50:08;;;;;;;10.60;7.95;;;21.20;57.90;;;;;;5022108;28;20057;-52
2022/06/30 02:52:37;;;;;;;11.73;7.22;;;21.20;58.00;;;;;;5020944;28;20057;-50
2022/06/30 02:55:06;;;;;;;11.80;7.80;;;21.20;57.90;;;;;;5020807;28;20049;-50
2022/06/30 02:57:39;;;;;;;7.95;6.70;;;21.20;58.00;;;;;;5020960;28;20497;-53
2022/06/30 03:00:09;;;;;;;9.15;7.15;;;21.10;58.60;;;;;;5021314;28;20589;-54
2022/06/30 03:02:37;;;;;;;10.75;7.80;;;21.10;58.00;;;;;;5020269;28;20069;-52
2022/06/30 03:05:07;;;;;;;7.55;6.75;;;21.10;58.10;;;;;;5022457;28;20065;-54
2022/06/30 03:07:35;;;;;;;9.40;7.38;;;21.10;58.20;;;;;;5021800;28;20053;-51
2022/06/30 03:10:03;;;;;;;8.88;7.82;;;21.10;58.20;;;;;;5020950;28;20603;-52
2022/06/30 03:12:30;;;;;;;10.13;7.82;;;21.00;58.20;;;;;;5019928;28;20402;-51
2022/06/30 03:14:58;;;;;;;8.85;7.72;;;21.10;58.30;;;;;;5019467;28;20049;-50
2022/06/30 03:17:26;;;;;;;8.65;6.80;;;21.00;58.30;;;;;;5014245;28;20065;-52
2022/06/30 03:19:54;;;;;;;8.15;7.25;;;21.00;58.30;;;;;;5022944;28;20057;-49
2022/06/30 03:22:23;;;;;;;10.75;7.38;;;21.00;58.40;;;;;;5030830;28;20048;-54
2022/06/30 03:24:50;;;;;;;8.98;7.50;;;21.00;58.40;;;;;;5043884;28;20053;-51
2022/06/30 03:27:18;;;;;;;8.35;7.30;;;20.90;58.30;;;;;;5040853;28;20052;-53
2022/06/30 03:29:45;;;;;;;8.85;7.95;;;20.90;58.40;;;;;;5040651;28;20048;-53
2022/06/30 03:32:13;;;;;;;8.30;7.47;;;20.90;58.40;;;;;;5038973;28;20523;-51
2022/06/30 03:34:40;;;;;;;9.57;8.05;;;20.90;58.50;;;;;;5045522;28;20064;-51
2022/06/30 03:37:08;;;;;;;7.95;7.15;;;20.90;58.60;;;;;;5046332;28;20063;-51
2022/06/30 03:39:37;;;;;;;10.38;8.40;;;20.90;58.70;;;;;;5048078;28;20432;-52
2022/06/30 03:42:04;;;;;;;11.07;7.95;;;20.90;58.90;;;;;;5043798;28;20522;-51
2022/06/30 03:44:32;;;;;;;7.93;7.13;;;20.90;58.80;;;;;;5045679;28;20060;-51
2022/06/30 03:47:00;;;;;;;8.93;7.80;;;20.90;58.70;;;;;;5045244;28;20053;-53
2022/06/30 03:49:27;;;;;;;9.98;7.55;;;20.90;58.80;;;;;;5045243;28;20053;-48
2022/06/30 03:51:55;;;;;;;12.13;7.97;;;20.80;58.80;;;;;;5043565;28;20389;-49
2022/06/30 03:54:22;;;;;;;10.65;8.57;;;20.80;59.00;;;;;;5045776;28;20052;-51
2022/06/30 03:56:51;;;;;;;13.40;10.07;;;20.80;59.10;;;;;;5042920;28;20053;-53
2022/06/30 03:59:19;;;;;;;13.48;10.30;;;20.80;59.20;;;;;;5044798;28;20048;-52
2022/06/30 04:01:46;;;;;;;12.38;9.43;;;20.80;59.20;;;;;;5039863;28;20049;-54
2022/06/30 04:04:14;;;;;;;12.05;8.68;;;20.80;59.20;;;;;;5045604;28;20045;-53
2022/06/30 04:06:41;;;;;;;15.18;9.13;;;20.80;59.40;;;;;;5045295;28;20417;-53
2022/06/30 04:09:08;;;;;;;10.57;8.70;;;20.80;59.50;;;;;;5044080;28;20053;-50
2022/06/30 04:11:36;;;;;;;9.82;8.63;;;20.80;59.60;;;;;;5042291;28;20053;-51
2022/06/30 04:14:05;;;;;;;12.55;8.43;;;20.80;59.60;;;;;;5045527;28;20061;-54
2022/06/30 04:16:32;;;;;;;10.55;8.10;;;20.80;59.70;;;;;;5042293;28;20067;-54
2022/06/30 04:19:00;;;;;;;10.00;8.10;;;20.80;59.70;;;;;;5040572;28;20063;-52
2022/06/30 04:21:27;;;;;;;11.27;8.57;;;20.80;59.70;;;;;;5042526;28;20416;-53
2022/06/30 04:23:55;;;;;;;18.70;13.70;;;20.80;59.80;;;;;;5044468;28;20056;-48
2022/06/30 04:26:22;;;;;;;19.55;14.30;;;20.80;59.80;;;;;;5044138;28;20053;-53
2022/06/30 04:28:49;;;;;;;14.40;10.88;;;20.80;59.80;;;;;;5043506;28;20056;-52
2022/06/30 04:34:03;;;;;;;11.35;8.32;;;20.90;60.00;;;;;;5049100;28;20072;-50
2022/06/30 04:36:31;;;;;;;13.02;8.40;;;20.90;59.90;;;;;;5043785;28;20064;-52
2022/06/30 04:38:58;;;;;;;9.98;7.75;;;20.90;60.00;;;;;;5043416;28;20500;-51
2022/06/30 04:41:24;;;;;;;11.30;7.85;;;20.90;60.30;;;;;;5041474;28;20052;-53
2022/06/30 04:43:52;;;;;;;10.27;8.23;;;20.90;60.30;;;;;;5043729;28;20056;-52
2022/06/30 04:46:21;;;;;;;10.05;8.35;;;20.90;60.40;;;;;;5041935;28;20056;-52
2022/06/30 04:48:49;;;;;;;8.73;7.55;;;20.90;60.60;;;;;;5042436;28;20056;-48
2022/06/30 04:51:17;;;;;;;17.60;12.70;;;21.00;60.60;;;;;;5042838;28;20052;-52
2022/06/30 04:53:45;;;;;;;19.52;14.70;;;21.00;60.70;;;;;;5042943;28;20060;-51
2022/06/30 04:56:13;;;;;;;14.60;11.85;;;21.00;60.80;;;;;;5044140;28;20075;-51
2022/06/30 04:58:41;;;;;;;13.48;10.50;;;21.00;60.90;;;;;;5043704;28;20075;-52
2022/06/30 05:01:09;;;;;;;12.10;9.05;;;21.00;60.90;;;;;;5040643;28;20060;-48
2022/06/30 05:03:38;;;;;;;12.25;8.30;;;21.00;61.00;;;;;;5043025;28;20052;-50
2022/06/30 05:06:06;;;;;;;10.95;8.38;;;21.10;61.20;;;;;;5045443;28;20057;-49
2022/06/30 05:08:34;;;;;;;10.30;8.45;;;21.10;61.30;;;;;;5042618;28;20060;-52
2022/06/30 05:11:02;;;;;;;13.07;9.70;;;21.10;61.30;;;;;;5041380;28;20049;-48
2022/06/30 05:13:29;;;;;;;9.63;8.20;;;21.10;61.50;;;;;;5044303;28;20057;-52
2022/06/30 05:15:57;;;;;;;10.38;8.27;;;21.20;61.60;;;;;;5044592;28;20064;-50
2022/06/30 05:18:26;;;;;;;10.52;8.40;;;21.20;61.80;;;;;;5042431;28;20044;-55
2022/06/30 05:20:55;;;;;;;10.27;8.75;;;21.30;61.90;;;;;;5042602;28;20432;-53
2022/06/30 05:23:23;;;;;;;13.25;8.75;;;21.30;62.00;;;;;;5042418;28;20072;-48
2022/06/30 05:28:35;;;;;;;10.13;8.60;;;21.40;62.20;;;;;;5049205;28;20061;-51
2022/06/30 05:31:03;;;;;;;12.85;9.48;;;21.40;62.30;;;;;;5041421;28;20242;-52
2022/06/30 05:33:30;;;;;;;11.50;8.45;;;21.40;62.40;;;;;;5043738;28;20059;-48
2022/06/30 05:35:59;;;;;;;13.10;9.45;;;21.40;62.40;;;;;;5043867;28;20427;-49
2022/06/30 05:38:27;;;;;;;11.50;9.32;;;21.50;62.70;;;;;;5043276;28;20382;-52
2022/06/30 05:40:54;;;;;;;9.88;8.73;;;21.50;62.70;;;;;;5040342;28;20083;-52
2022/06/30 05:43:22;;;;;;;15.90;9.13;;;21.60;62.70;;;;;;5041613;28;20053;-48
2022/06/30 05:45:50;;;;;;;13.95;9.07;;;21.60;62.90;;;;;;5042691;28;20053;-48
2022/06/30 05:48:18;;;;;;;11.80;8.98;;;21.70;63.00;;;;;;5042384;28;20049;-50
2022/06/30 05:50:47;;;;;;;9.80;8.77;;;21.80;63.10;;;;;;5040581;28;20057;-48
2022/06/30 05:53:16;;;;;;;10.48;8.80;;;21.80;63.00;;;;;;5043916;28;20388;-52
2022/06/30 05:55:44;;;;;;;12.23;8.18;;;21.90;63.30;;;;;;5043118;28;20381;-52
2022/06/30 05:58:14;;;;;;;10.23;8.70;;;22.00;63.10;;;;;;5040179;28;20053;-52
2022/06/30 06:00:41;;;;;;;10.18;9.02;;;22.00;63.00;;;;;;5041116;28;20555;-52
2022/06/30 06:03:09;;;;;;;11.93;9.27;;;22.10;63.00;;;;;;5042649;28;20063;-49
2022/06/30 06:05:36;;;;;;;11.38;9.93;;;22.10;62.70;;;;;;5042377;28;20531;-47
2022/06/30 06:08:07;;;;;;;14.05;8.90;;;22.20;62.80;;;;;;5041223;28;20049;-49
2022/06/30 06:10:36;;;;;;;12.23;9.18;;;22.30;63.00;;;;;;5043567;28;20515;-49
2022/06/30 06:13:04;;;;;;;11.65;9.80;;;22.40;63.10;;;;;;5041868;28;20501;-50
2022/06/30 06:15:32;;;;;;;10.90;9.80;;;22.40;63.00;;;;;;5043270;28;20071;-52
2022/06/30 06:17:59;;;;;;;12.80;9.75;;;22.50;62.90;;;;;;5043190;28;20513;-47
2022/06/30 06:20:27;;;;;;;12.77;10.63;;;22.60;62.80;;;;;;5042202;28;20063;-50
2022/06/30 06:22:54;;;;;;;15.02;10.57;;;22.70;62.70;;;;;;5043642;28;20428;-49
2022/06/30 06:25:22;;;;;;;10.77;9.68;;;22.70;62.50;;;;;;5042442;28;20049;-49
2022/06/30 06:30:32;;;;;;;12.48;9.82;;;22.90;62.90;;;;;;5039818;28;20052;-49
2022/06/30 06:33:00;;;;;;;14.82;9.93;;;23.00;62.60;;;;;;5042979;28;20052;-50
2022/06/30 06:35:28;;;;;;;10.52;9.43;;;23.00;62.50;;;;;;5042259;28;20056;-51
2022/06/30 06:37:55;;;;;;;12.13;10.18;;;23.10;62.30;;;;;;5041051;28;20056;-51
2022/06/30 06:40:23;;;;;;;12.82;10.00;;;23.20;62.50;;;;;;5042153;28;20049;-51
2022/06/30 06:42:52;;;;;;;10.63;9.27;;;23.20;62.50;;;;;;5039871;28;20048;-50
2022/06/30 06:45:20;;;;;;;10.57;9.48;;;23.30;62.40;;;;;;5042149;28;20065;-49
2022/06/30 06:47:47;;;;;;;14.60;10.70;;;23.40;62.40;;;;;;5037933;28;20059;-50
2022/06/30 06:50:15;;;;;;;18.17;12.20;;;23.50;62.20;;;;;;5041813;28;20055;-50
2022/06/30 06:52:42;;;;;;;12.98;10.35;;;23.50;62.40;;;;;;5039304;28;20049;-51
2022/06/30 06:55:10;;;;;;;13.07;10.20;;;23.60;62.20;;;;;;5041596;28;20053;-48
2022/06/30 06:57:39;;;;;;;13.60;10.85;;;23.70;61.80;;;;;;5042346;28;20416;-50
2022/06/30 07:00:11;;;;;;;11.88;10.18;;;23.80;61.50;;;;;;5041099;28;20053;-50
2022/06/30 07:02:39;;;;;;;15.70;10.68;;;23.80;61.20;;;;;;5039311;28;20622;-50
2022/06/30 07:05:08;;;;;;;12.80;10.30;;;23.90;61.30;;;;;;5040861;28;20400;-48
2022/06/30 07:07:35;;;;;;;11.48;9.40;;;23.90;61.10;;;;;;5040818;28;20063;-47
2022/06/30 07:10:05;;;;;;;10.77;9.68;;;24.00;61.20;;;;;;5043926;28;20057;-47
2022/06/30 07:12:33;;;;;;;14.15;9.98;;;24.10;61.10;;;;;;5045404;28;20052;-47
2022/06/30 07:15:00;;;;;;;13.55;10.57;;;24.10;60.90;;;;;;5047640;28;20060;-45
2022/06/30 07:17:29;;;;;;;14.18;8.73;;;24.20;61.00;;;;;;5044876;28;20056;-47
2022/06/30 07:19:56;;;;;;;15.57;9.60;;;24.20;60.80;;;;;;5046369;28;20072;-51
2022/06/30 07:22:24;;;;;;;12.18;10.15;;;24.30;61.00;;;;;;5044601;28;20045;-47
2022/06/30 07:24:51;;;;;;;12.82;10.00;;;24.40;60.90;;;;;;5045845;28;20061;-53
2022/06/30 07:27:19;;;;;;;10.25;9.15;;;24.40;61.20;;;;;;5045464;28;20523;-51
2022/06/30 07:29:46;;;;;;;11.10;8.98;;;24.50;61.10;;;;;;5045366;28;20068;-50
2022/06/30 07:32:14;;;;;;;10.27;8.80;;;24.50;61.10;;;;;;5042155;28;20540;-55
2022/06/30 07:34:42;;;;;;;12.95;8.57;;;24.70;61.10;;;;;;5045762;28;20045;-53
2022/06/30 07:37:10;;;;;;;10.75;8.90;;;24.70;60.70;;;;;;5046067;28;20536;-51
2022/06/30 07:39:38;;;;;;;12.35;8.52;;;24.80;60.40;;;;;;5045586;28;20060;-48
2022/06/30 07:42:06;;;;;;;12.38;9.07;;;24.80;60.20;;;;;;5044627;28;20060;-48
2022/06/30 07:44:33;;;;;;;11.65;9.02;;;24.90;60.50;;;;;;5044465;28;20049;-44
2022/06/30 07:47:01;;;;;;;10.00;8.82;;;25.00;60.10;;;;;;5044772;28;20059;-49
2022/06/30 07:49:28;;;;;;;9.75;8.75;;;25.10;59.80;;;;;;5045158;28;20056;-50
2022/06/30 07:51:57;;;;;;;9.48;8.45;;;25.20;59.80;;;;;;5043612;28;20413;-50
2022/06/30 07:54:24;;;;;;;11.93;9.60;;;25.20;59.70;;;;;;5044880;28;20053;-47
2022/06/30 07:56:52;;;;;;;9.38;8.20;;;25.30;59.60;;;;;;5044664;28;20056;-51
2022/06/30 07:59:19;;;;;;;9.88;8.30;;;25.40;59.60;;;;;;5044633;28;20049;-43
2022/06/30 08:01:47;;;;;;;10.57;7.63;;;25.50;59.30;;;;;;5041900;28;20408;-51
2022/06/30 08:04:17;;;;;;;9.38;7.60;;;25.50;58.90;;;;;;5045523;28;20052;-51
2022/06/30 08:06:44;;;;;;;8.02;7.22;;;25.60;58.80;;;;;;5046297;28;20068;-48
2022/06/30 08:09:13;;;;;;;11.25;8.25;;;25.70;58.50;;;;;;5044987;28;20535;-51
2022/06/30 08:11:41;;;;;;;8.98;7.93;;;25.70;58.30;;;;;;5042201;28;20056;-52
2022/06/30 08:14:08;;;;;;;8.63;7.13;;;25.80;58.10;;;;;;5043930;28;20052;-50
2022/06/30 08:16:36;;;;;;;9.68;7.53;;;25.80;58.20;;;;;;5042386;28;20057;-54
2022/06/30 08:19:04;;;;;;;8.05;6.93;;;25.90;57.40;;;;;;5043974;28;20056;-55
2022/06/30 08:21:31;;;;;;;9.85;7.18;;;26.00;56.80;;;;;;5040257;28;20057;-49
2022/06/30 08:23:59;;;;;;;7.57;6.78;;;26.00;56.80;;;;;;5046492;28;20060;-54
2022/06/30 08:26:28;;;;;;;8.60;7.45;;;26.10;56.70;;;;;;5041622;28;20493;-55
2022/06/30 08:28:55;;;;;;;13.00;6.80;;;26.20;56.30;;;;;;5044807;28;20060;-51
2022/06/30 08:31:23;;;;;;;8.35;7.38;;;26.20;56.50;;;;;;5044110;28;20053;-49
2022/06/30 08:33:52;;;;;;;7.57;6.55;;;26.20;56.40;;;;;;5044902;28;20064;-52
2022/06/30 08:36:19;;;;;;;11.10;7.18;;;26.30;56.20;;;;;;5044816;28;20053;-45
2022/06/30 08:38:47;;;;;;;9.80;6.30;;;26.40;56.10;;;;;;5043850;28;20052;-50
2022/06/30 08:44:02;;;;;;;6.88;5.90;;;26.50;55.40;;;;;;5048097;28;20060;-50
2022/06/30 08:46:29;;;;;;;8.00;6.25;;;26.60;55.10;;;;;;5042849;28;20419;-51
2022/06/30 08:48:57;;;;;;;8.18;6.03;;;26.60;55.10;;;;;;5042037;28;20060;-45
2022/06/30 08:51:28;;;;;;;8.35;5.85;;;26.70;55.00;;;;;;5043245;28;20500;-49
2022/06/30 08:53:59;;;;;;;6.63;5.93;;;26.80;55.00;;;;;;5045741;28;20045;-48
2022/06/30 08:56:30;;;;;;;8.20;5.78;;;26.80;54.80;;;;;;5043284;28;20056;-48
2022/06/30 08:59:01;;;;;;;11.55;6.25;;;26.90;54.80;;;;;;5042539;28;20057;-51
2022/06/30 09:01:29;;;;;;;8.45;5.10;;;27.00;54.50;;;;;;5041088;28;20044;-43
2022/06/30 09:03:57;;;;;;;7.60;5.30;;;27.00;54.20;;;;;;5043550;28;20049;-46
2022/06/30 09:06:25;;;;;;;5.40;4.68;;;27.10;53.70;;;;;;5043513;28;20060;-49
2022/06/30 09:08:52;;;;;;;7.18;4.40;;;27.20;53.40;;;;;;5042444;28;20064;-51
2022/06/30 09:11:20;;;;;;;8.48;4.20;;;27.20;52.50;;;;;;5042179;28;20064;-49
2022/06/30 09:13:49;;;;;;;7.53;4.90;;;27.30;52.10;;;;;;5043358;28;20049;-49
2022/06/30 09:16:18;;;;;;;5.32;3.92;;;27.40;51.50;;;;;;5042373;28;20060;-51
2022/06/30 09:18:46;;;;;;;5.65;3.95;;;27.40;48.30;;;;;;5042180;28;20059;-47
2022/06/30 09:21:18;;;;;;;4.78;3.20;;;27.50;48.30;;;;;;5041156;28;20408;-52
2022/06/30 09:23:46;;;;;;;7.60;4.60;;;27.50;49.20;;;;;;5044284;28;20060;-50
2022/06/30 09:26:19;;;;;;;7.88;4.40;;;27.60;48.10;;;;;;5042214;28;21340;-46
2022/06/30 09:28:50;;;;;;;6.05;4.13;;;27.70;49.70;;;;;;5039831;28;20480;-51
2022/06/30 09:31:34;;;;;;;4.75;4.18;;;27.80;49.40;;;;;;5039890;28;20056;-48
2022/06/30 09:34:16;;;;;;;4.38;3.53;;;27.80;48.10;;;;;;5041609;28;20052;-48
2022/06/30 09:36:45;;;;;;;5.03;3.80;;;27.90;48.20;;;;;;5041945;28;20515;-50
2022/06/30 09:39:15;;;;;;;4.68;3.75;;;28.00;48.90;;;;;;5040011;28;20053;-49
2022/06/30 09:41:44;;;;;;;4.00;3.42;;;28.10;49.10;;;;;;5040552;28;20059;-53
2022/06/30 09:44:20;;;;;;;4.80;3.13;;;28.10;48.30;;;;;;5041324;28;20067;-48
2022/06/30 09:46:59;;;;;;;4.40;2.55;;;28.20;47.00;;;;;;5037282;28;20076;-50
2022/06/30 09:49:30;;;;;;;3.33;2.58;;;28.30;45.90;;;;;;5038527;28;20833;-53
2022/06/30 09:51:59;;;;;;;5.60;2.95;;;28.30;44.70;;;;;;5038457;28;21103;-51
2022/06/30 09:54:27;;;;;;;5.18;2.75;;;28.40;43.80;;;;;;5039364;28;20068;-48
2022/06/30 09:57:02;;;;;;;4.53;2.92;;;28.40;43.50;;;;;;5042406;28;20436;-48
2022/06/30 09:59:30;;;;;;;3.58;2.90;;;28.50;43.10;;;;;;5041380;28;20404;-52
2022/06/30 10:01:59;;;;;;;2.88;2.40;;;28.50;44.40;;;;;;5038622;28;20056;-50
2022/06/30 10:04:27;;;;;;;4.70;3.90;;;28.70;43.70;;;;;;5041135;28;20067;-53
2022/06/30 10:06:55;;;;;;;5.95;4.95;;;28.70;44.50;;;;;;5042045;28;20068;-54
2022/06/30 10:09:23;;;;;;;5.35;4.70;;;28.70;47.10;;;;;;5040725;28;20066;-54
2022/06/30 10:11:52;;;;;;;8.38;4.70;;;28.80;46.80;;;;;;5040206;28;20061;-48
2022/06/30 10:14:21;;;;;;;4.53;3.80;;;28.90;46.60;;;;;;5040391;28;20538;-52
2022/06/30 10:16:48;;;;;;;5.55;4.20;;;29.00;47.10;;;;;;5037276;28;20131;-55
2022/06/30 10:19:18;;;;;;;4.38;3.80;;;29.00;46.00;;;;;;5038596;28;20636;-53
2022/06/30 10:21:46;;;;;;;5.00;4.07;;;29.10;45.40;;;;;;5038288;28;20059;-55
2022/06/30 10:24:18;;;;;;;6.95;4.13;;;29.10;45.00;;;;;;5039967;28;20048;-49
2022/06/30 10:29:31;;;;;;;5.18;3.90;;;29.20;44.60;;;;;;5045793;28;20059;-54
2022/06/30 10:32:05;;;;;;;8.77;4.50;;;29.20;45.00;;;;;;5031564;28;20060;-54
2022/06/30 10:34:37;;;;;;;8.35;3.83;;;29.20;43.30;;;;;;5039673;28;20111;-47
2022/06/30 10:37:11;;;;;;;6.63;2.90;;;29.10;43.10;;;;;;5031666;28;20388;-50
2022/06/30 10:39:47;;;;;;;2.83;2.42;;;29.20;41.40;;;;;;5040077;28;20389;-51
2022/06/30 10:42:45;;;;;;;3.20;2.78;;;29.10;42.00;;;;;;5037050;28;20840;-48
2022/06/30 10:45:49;;;;;;;4.15;3.10;;;29.20;41.00;;;;;;5034073;28;20067;-54
2022/06/30 10:48:17;;;;;;;5.77;3.50;;;29.20;42.90;;;;;;5035663;28;20048;-50
2022/06/30 10:50:46;;;;;;;4.35;3.13;;;29.30;41.30;;;;;;5037100;28;20053;-52
2022/06/30 10:53:16;;;;;;;5.32;3.17;;;29.30;41.90;;;;;;5040759;28;20049;-52
2022/06/30 10:55:45;;;;;;;3.85;2.50;;;29.30;42.10;;;;;;5039780;28;20041;-48
2022/06/30 10:58:14;;;;;;;4.82;2.95;;;29.40;42.10;;;;;;5038392;28;20087;-51
2022/06/30 11:01:00;;;;;;;4.38;2.90;;;29.50;42.50;;;;;;5038491;28;20053;-51
2022/06/30 11:04:10;;;;;;;3.67;2.50;;;29.50;39.90;;;;;;5034557;28;20569;-48
2022/06/30 11:07:12;;;;;;;3.05;2.75;;;29.60;41.10;;;;;;5037372;28;20060;-47
2022/06/30 11:10:19;;;;;;;4.75;3.08;;;29.70;42.40;;;;;;5038011;28;20060;-44
2022/06/30 11:13:07;;;;;;;4.50;3.10;;;29.70;42.30;;;;;;5031947;28;20060;-48
2022/06/30 11:15:58;;;;;;;4.20;2.95;;;29.70;42.40;;;;;;5034298;28;20045;-52
2022/06/30 11:18:27;;;;;;;6.95;3.20;;;29.80;40.10;;;;;;5032701;28;20049;-52
2022/06/30 11:20:56;;;;;;;3.88;3.08;;;29.70;40.30;;;;;;5034532;28;20489;-52
2022/06/30 11:23:25;;;;;;;5.15;3.30;;;29.70;40.30;;;;;;5038976;28;20053;-52
2022/06/30 11:28:42;;;;;;;4.35;3.30;;;29.80;40.60;;;;;;5041192;28;20057;-50
2022/06/30 11:31:24;;;;;;;6.15;3.15;;;29.70;40.60;;;;;;5031576;28;20497;-51
2022/06/30 11:33:57;;;;;;;4.25;3.05;;;29.80;39.80;;;;;;5040107;28;20049;-50
2022/06/30 11:36:25;;;;;;;4.93;2.97;;;29.80;39.80;;;;;;5032458;28;20049;-50
2022/06/30 11:39:01;;;;;;;3.85;2.97;;;29.80;39.80;;;;;;5039147;28;20526;-50
2022/06/30 11:44:15;;;;;;;4.72;2.90;;;29.80;39.50;;;;;;5044437;28;20064;-44
2022/06/30 11:46:57;;;;;;;3.08;2.10;;;29.80;39.90;;;;;;5040728;28;20052;-49
2022/06/30 11:49:28;;;;;;;3.72;2.30;;;29.80;38.40;;;;;;5040942;28;20083;-49
2022/06/30 11:51:57;;;;;;;3.17;2.20;;;29.90;38.80;;;;;;5041610;28;20240;-52
2022/06/30 11:54:28;;;;;;;2.25;2.05;;;29.90;38.50;;;;;;5041694;28;20421;-50
2022/06/30 11:57:00;;;;;;;5.75;1.92;;;29.90;39.20;;;;;;5045007;28;20057;-48
2022/06/30 11:59:27;;;;;;;3.60;1.92;;;29.90;39.10;;;;;;5043126;28;20049;-50
2022/06/30 12:02:05;;;;;;;2.58;2.20;;;30.00;38.80;;;;;;5044504;28;20072;-50
2022/06/30 12:04:34;;;;;;;4.25;2.00;;;30.00;39.00;;;;;;5044771;28;20063;-50
2022/06/30 12:07:02;;;;;;;2.35;2.15;;;30.00;38.70;;;;;;5045110;28;20060;-50
2022/06/30 12:09:32;;;;;;;2.05;1.77;;;30.00;38.50;;;;;;5045420;28;20056;-48
2022/06/30 12:12:00;;;;;;;4.32;1.98;;;30.00;37.50;;;;;;5044421;28;20515;-48
2022/06/30 12:14:27;;;;;;;2.33;1.92;;;30.00;37.70;;;;;;5044745;28;20111;-53
2022/06/30 12:16:56;;;;;;;5.53;2.28;;;30.00;38.00;;;;;;5044327;28;20420;-54
2022/06/30 12:19:25;;;;;;;2.90;2.60;;;30.00;39.10;;;;;;5044329;28;20504;-55
2022/06/30 12:21:54;;;;;;;2.00;1.67;;;30.10;38.70;;;;;;5044800;28;20056;-54
2022/06/30 12:24:23;;;;;;;3.15;2.33;;;30.20;38.70;;;;;;5044337;28;20068;-56
2022/06/30 12:26:53;;;;;;;3.80;2.10;;;30.20;38.00;;;;;;5043683;28;20060;-53
2022/06/30 12:29:22;;;;;;;2.45;2.22;;;30.30;37.30;;;;;;5044096;28;20064;-53
2022/06/30 12:32:03;;;;;;;2.38;1.70;;;30.30;38.30;;;;;;5044366;28;20053;-50
2022/06/30 12:34:32;;;;;;;4.13;2.30;;;30.30;38.10;;;;;;5044341;28;20056;-53
2022/06/30 12:37:01;;;;;;;2.28;1.80;;;30.40;38.30;;;;;;5044856;28;20057;-48
2022/06/30 12:39:30;;;;;;;3.00;2.13;;;30.40;38.60;;;;;;5044360;28;20056;-51
2022/06/30 12:42:04;;;;;;;9.20;2.63;;;30.30;39.00;;;;;;5044278;28;20067;-52
2022/06/30 12:44:34;;;;;;;6.00;2.40;;;30.30;38.40;;;;;;5043668;28;20057;-54
2022/06/30 12:47:07;;;;;;;3.53;2.22;;;30.40;39.40;;;;;;5044407;28;20057;-47
2022/06/30 12:49:34;;;;;;;2.75;2.13;;;30.30;38.10;;;;;;5043886;28;20497;-47
2022/06/30 12:52:13;;;;;;;1.88;1.77;;;30.40;38.00;;;;;;5043724;28;20068;-46
2022/06/30 12:54:51;;;;;;;2.75;2.05;;;30.40;37.30;;;;;;5043354;28;20061;-49
2022/06/30 12:57:20;;;;;;;3.53;2.22;;;30.40;37.00;;;;;;5043656;28;20057;-55
2022/06/30 12:59:50;;;;;;;3.38;1.90;;;30.40;35.90;;;;;;5043895;28;20052;-54
2022/06/30 13:02:18;;;;;;;3.22;2.45;;;30.40;36.40;;;;;;5043265;28;20068;-49
2022/06/30 13:04:50;;;;;;;2.83;1.98;;;30.40;37.10;;;;;;5040536;28;20059;-47
2022/06/30 13:07:17;;;;;;;2.22;1.80;;;30.40;37.20;;;;;;5037777;28;20053;-44
2022/06/30 13:09:46;;;;;;;3.22;2.10;;;30.30;37.50;;;;;;5044825;28;20056;-44
2022/06/30 13:12:14;;;;;;;3.30;1.95;;;30.40;37.30;;;;;;5042788;28;20053;-50
2022/06/30 13:14:44;;;;;;;2.97;2.10;;;30.40;36.80;;;;;;5043015;28;20063;-46
2022/06/30 13:17:12;;;;;;;3.67;2.00;;;30.40;36.70;;;;;;5043059;28;20053;-45